createdAt,value
2023-05-02T00:05:16.023Z,4.53
2023-05-02T00:20:20.593Z,5.43
2023-05-02T00:35:24.976Z,4.90
2023-05-02T00:50:31.778Z,6.97
2023-05-02T01:05:48.133Z,5.97
2023-05-02T01:20:58.472Z,7.73
2023-05-02T01:36:04.740Z,7.83
2023-05-02T01:51:10.692Z,8.53
2023-05-02T02:06:15.929Z,8.10
2023-05-02T02:21:23.780Z,8.47
2023-05-02T02:36:34.107Z,11.17
2023-05-02T02:51:44.368Z,9.63
2023-05-02T03:06:49.056Z,10.10
2023-05-02T03:21:54.595Z,11.03
2023-05-02T03:36:59.073Z,13.23
2023-05-02T03:52:04.089Z,12.63
2023-05-02T04:07:17.972Z,14.10
2023-05-02T04:22:23.645Z,12.57
2023-05-02T04:37:33.281Z,13.97
2023-05-02T04:52:38.559Z,15.23
2023-05-02T05:07:43.116Z,16.03
2023-05-02T05:22:48.661Z,17.93
2023-05-02T05:37:53.282Z,17.80
2023-05-02T05:52:58.357Z,20.23
2023-05-02T06:08:03.134Z,21.80
2023-05-02T06:23:07.593Z,22.87
2023-05-02T06:38:12.051Z,22.37
2023-05-02T06:53:16.833Z,25.00
2023-05-02T07:08:22.560Z,27.93
2023-05-02T07:23:26.979Z,27.27
2023-05-02T07:38:31.388Z,24.83
2023-05-02T07:53:36.118Z,23.90
2023-05-02T08:08:40.597Z,26.60
2023-05-02T08:23:46.231Z,21.40
2023-05-02T08:38:50.536Z,17.23
2023-05-02T08:53:56.330Z,14.13
2023-05-02T09:09:02.159Z,12.53
2023-05-02T09:24:17.005Z,11.73
2023-05-02T09:39:24.759Z,21.87
2023-05-02T09:54:37.919Z,19.13
2023-05-02T10:09:45.408Z,17.37
2023-05-02T10:24:50.764Z,15.23
2023-05-02T10:39:55.713Z,13.17
2023-05-02T10:55:20.489Z,13.97
2023-05-02T11:10:29.207Z,11.13
2023-05-02T11:25:39.211Z,9.30
2023-05-02T11:40:51.845Z,10.17
2023-05-02T11:55:57.658Z,7.63
2023-05-02T12:11:02.068Z,7.30
2023-05-02T12:26:19.830Z,6.93
2023-05-02T12:41:33.393Z,7.37
2023-05-02T12:56:44.203Z,6.10
2023-05-02T13:11:49.215Z,5.13
2023-05-02T13:26:53.632Z,6.00
2023-05-02T13:41:58.076Z,5.27
2023-05-02T13:57:02.590Z,4.63
2023-05-02T14:12:07.186Z,3.33
2023-05-02T14:27:17.762Z,2.73
2023-05-02T14:42:22.633Z,3.37
2023-05-02T14:57:27.317Z,2.40
2023-05-02T15:12:31.861Z,1.80
2023-05-02T15:27:36.315Z,1.70
2023-05-02T15:42:40.930Z,2.17
2023-05-02T15:57:45.314Z,1.93
2023-05-02T16:12:49.770Z,2.20
2023-05-02T16:27:54.171Z,1.77
2023-05-02T16:42:58.954Z,2.90
2023-05-02T16:58:03.532Z,2.37
2023-05-02T17:13:08.037Z,2.87
2023-05-02T17:28:12.541Z,2.93
2023-05-02T17:43:16.898Z,2.57
2023-05-02T17:58:21.325Z,2.70
2023-05-02T18:13:25.776Z,3.77
2023-05-02T18:28:30.254Z,4.60
2023-05-02T18:43:35.322Z,6.10
2023-05-02T18:58:39.714Z,3.67
2023-05-02T19:13:44.102Z,3.07
2023-05-02T19:28:48.551Z,2.93
2023-05-02T19:43:53.226Z,2.40
2023-05-02T19:58:58.642Z,2.33
2023-05-02T20:14:03.352Z,2.40
2023-05-02T20:29:07.788Z,3.03
2023-05-02T20:44:16.903Z,3.60
2023-05-02T20:59:21.341Z,4.27
2023-05-02T21:14:26.918Z,4.33
2023-05-02T21:29:31.303Z,5.13
2023-05-02T21:44:35.737Z,3.90
2023-05-02T21:59:40.265Z,5.40
2023-05-02T22:14:45.935Z,4.63
2023-05-02T22:29:50.696Z,4.90
2023-05-02T22:44:55.140Z,5.27
2023-05-02T22:59:59.645Z,7.53
2023-05-02T23:15:04.276Z,7.40
2023-05-02T23:30:10.349Z,5.50
2023-05-02T23:45:14.772Z,4.37
